Lewiston, Michigan
Current Conditions -  °F | °C
As of 6:53 PM on Thursday 18 Dec 2014 (Local Time) from KGLR Reporting Station
Clear Clear  
Wind Chill: -8°   Ceiling: Unl
Heat Index: -8°   Visibility: 10mi
Dew Point: -11°   Wind: 0mph
Humidity: 84%   Direction: NA
Pressure: 30.17"   Gusts: NA
Location:  44.88°N, 84.31°W
Report Text: KGLR 182353Z AUTO 00000KT 10SM CLR M08/M11 A3017 RMK AO2 SLP243 T10831106 11044 21083 51009
Loading
Personal Weather Stations






























Interactive Weather Map New forecast layout! Learn more

10-Day Weather Forecast

Advertisements
Track Severe Weather on mobile